Time,TemperatureF,DewpointF,PressureIn,WindDirection,WindDirectionDegrees,WindSpeedMPH,WindSpeedGustMPH,Humidity,HourlyPrecipIn,Conditions,Clouds,dailyrainin,SoftwareType,DateUTC
2013-01-01 00:00:00,47.4,31.6,30.21,North,353,1.0,1.0,54,0.00,,,0.00,Wunderground v.1.15,2013-01-01 05:00:00,
2013-01-01 00:04:00,47.4,31.6,30.21,North,4,0.0,7.0,54,0.00,,,0.00,Wunderground v.1.15,2013-01-01 05:04:00,
2013-01-01 00:05:00,48.0,31.7,30.19,North,0,0.0,-999.0,53,0.00,,,0.24,Wunderground v.1.15,2013-01-01 05:05:00,
2013-01-01 00:10:00,47.5,30.7,30.20,North,7,0.0,7.0,52,0.00,,,0.00,Wunderground v.1.15,2013-01-01 05:10:00,
2013-01-01 00:15:00,48.0,31.7,30.19,North,0,0.0,-999.0,53,0.00,,,0.24,Wunderground v.1.15,2013-01-01 05:15:00,
2013-01-01 00:16:00,47.8,31.5,30.19,NNW,341,1.0,7.0,53,0.00,,,0.00,Wunderground v.1.15,2013-01-01 05:16:00,
2013-01-01 00:20:00,48.0,31.7,30.19,North,0,0.0,-999.0,53,0.00,,,0.24,Wunderground v.1.15,2013-01-01 05:20:00,
2013-01-01 00:22:00,47.9,31.6,30.20,ENE,73,0.0,7.0,53,0.00,,,0.00,Wunderground v.1.15,2013-01-01 05:22:00,
2013-01-01 00:25:00,48.0,31.7,30.19,North,0,0.0,-999.0,53,0.00,,,0.24,Wunderground v.1.15,2013-01-01 05:25:00,
2013-01-01 00:28:00,48.0,32.1,30.20,NE,43,1.0,7.0,54,0.00,,,0.00,Wunderground v.1.15,2013-01-01 05:28:00,
2013-01-01 00:30:00,48.0,31.7,30.19,North,0,0.0,-999.0,53,0.00,,,0.24,Wunderground v.1.15,2013-01-01 05:30:00,
2013-01-01 00:34:00,48.0,32.1,30.19,ENE,70,0.0,7.0,54,0.00,,,0.00,Wunderground v.1.15,2013-01-01 05:34:00,
2013-01-01 00:35:00,48.0,31.7,30.19,North,0,0.0,-999.0,53,0.00,,,0.24,Wunderground v.1.15,2013-01-01 05:35:00,
2013-01-01 00:40:00,48.0,31.7,30.19,NNE,12,0.0,7.0,53,0.00,,,0.00,Wunderground v.1.15,2013-01-01 05:40:00,
2013-01-01 00:45:00,47.5,31.2,30.18,NNE,23,0.0,-999.0,53,0.00,,,0.24,Wunderground v.1.15,2013-01-01 05:45:00,
2013-01-01 00:46:00,48.0,31.2,30.18,NNE,19,0.0,7.0,52,0.00,,,0.00,Wunderground v.1.15,2013-01-01 05:46:00,
2013-01-01 00:50:00,47.5,31.2,30.18,NNE,23,0.0,-999.0,53,0.00,,,0.24,Wunderground v.1.15,2013-01-01 05:50:00,
2013-01-01 00:52:00,47.9,31.6,30.19,NNE,23,0.0,7.0,53,0.00,,,0.00,Wunderground v.1.15,2013-01-01 05:52:00,
2013-01-01 00:55:00,47.5,31.2,30.18,NNE,23,0.0,-999.0,53,0.00,,,0.24,Wunderground v.1.15,2013-01-01 05:55:00,
2013-01-01 00:58:00,47.6,30.8,30.18,NNW,339,0.0,7.0,52,0.00,,,0.00,Wunderground v.1.15,2013-01-01 05:58:00,
2013-01-01 01:00:00,47.5,31.2,30.18,NNE,23,0.0,-999.0,53,0.00,,,0.24,Wunderground v.1.15,2013-01-01 06:00:00,
2013-01-01 01:04:00,47.4,31.6,30.18,NNW,341,0.0,7.0,54,0.00,,,0.00,Wunderground v.1.15,2013-01-01 06:04:00,
2013-01-01 01:05:00,47.5,31.2,30.18,NNE,23,0.0,-999.0,53,0.00,,,0.24,Wunderground v.1.15,2013-01-01 06:05:00,
2013-01-01 01:10:00,47.4,32.0,30.18,NE,41,0.0,7.0,55,0.00,,,0.00,Wunderground v.1.15,2013-01-01 06:10:00,
2013-01-01 01:15:00,48.2,31.4,30.15,North,0,0.0,-999.0,52,0.00,,,0.24,Wunderground v.1.15,2013-01-01 06:15:00,
2013-01-01 01:16:00,47.6,31.8,30.17,NNE,27,0.0,7.0,54,0.00,,,0.00,Wunderground v.1.15,2013-01-01 06:16:00,
2013-01-01 01:20:00,48.2,31.4,30.15,North,0,0.0,-999.0,52,0.00,,,0.24,Wunderground v.1.15,2013-01-01 06:20:00,
2013-01-01 01:22:00,47.8,31.5,30.17,North,350,0.0,7.0,53,0.00,,,0.00,Wunderground v.1.15,2013-01-01 06:22:00,
2013-01-01 01:25:00,48.2,31.4,30.15,North,0,0.0,-999.0,52,0.00,,,0.24,Wunderground v.1.15,2013-01-01 06:25:00,
2013-01-01 01:28:00,48.1,30.8,30.15,North,5,1.0,7.0,51,0.00,,,0.00,Wunderground v.1.15,2013-01-01 06:28:00,
2013-01-01 01:30:00,48.2,31.4,30.15,North,0,0.0,-999.0,52,0.00,,,0.24,Wunderground v.1.15,2013-01-01 06:30:00,
2013-01-01 01:34:00,48.2,31.4,30.15,NNW,340,0.0,7.0,52,0.00,,,0.00,Wunderground v.1.15,2013-01-01 06:34:00,
2013-01-01 01:35:00,48.2,31.4,30.15,North,0,0.0,-999.0,52,0.00,,,0.24,Wunderground v.1.15,2013-01-01 06:35:00,
2013-01-01 01:40:00,48.5,30.7,30.14,NNW,347,1.0,7.0,50,0.00,,,0.00,Wunderground v.1.15,2013-01-01 06:40:00,
2013-01-01 01:45:00,48.6,31.8,30.15,North,0,1.0,-999.0,52,0.00,,,0.24,Wunderground v.1.15,2013-01-01 06:45:00,
2013-01-01 01:46:00,48.6,31.8,30.14,North,349,1.0,7.0,52,0.00,,,0.00,Wunderground v.1.15,2013-01-01 06:46:00,
2013-01-01 01:50:00,48.6,31.8,30.15,North,0,1.0,-999.0,52,0.00,,,0.24,Wunderground v.1.15,2013-01-01 06:50:00,
2013-01-01 01:52:00,48.5,31.7,30.15,NNE,16,0.0,7.0,52,0.00,,,0.00,Wunderground v.1.15,2013-01-01 06:52:00,
2013-01-01 01:55:00,48.6,31.8,30.15,North,0,1.0,-999.0,52,0.00,,,0.24,Wunderground v.1.15,2013-01-01 06:55:00,
2013-01-01 01:58:00,48.5,31.7,30.15,North,351,1.0,7.0,52,0.00,,,0.00,Wunderground v.1.15,2013-01-01 06:58:00,
2013-01-01 02:00:00,48.6,31.8,30.15,North,0,1.0,-999.0,52,0.00,,,0.24,Wunderground v.1.15,2013-01-01 07:00:00,
2013-01-01 02:04:00,48.7,31.4,30.15,NNW,334,1.0,7.0,51,0.00,,,0.00,Wunderground v.1.15,2013-01-01 07:04:00,
2013-01-01 02:05:00,48.6,31.8,30.15,North,0,1.0,-999.0,52,0.00,,,0.24,Wunderground v.1.15,2013-01-01 07:05:00,
2013-01-01 02:10:00,48.8,31.9,30.15,North,355,1.0,7.0,52,0.00,,,0.00,Wunderground v.1.15,2013-01-01 07:10:00,
2013-01-01 02:15:00,49.1,31.7,30.15,North,0,1.0,-999.0,51,0.00,,,0.24,Wunderground v.1.15,2013-01-01 07:15:00,
2013-01-01 02:16:00,49.0,31.6,30.15,NNW,340,1.0,7.0,51,0.00,,,0.00,Wunderground v.1.15,2013-01-01 07:16:00,
2013-01-01 02:20:00,49.1,31.7,30.15,North,0,1.0,-999.0,51,0.00,,,0.24,Wunderground v.1.15,2013-01-01 07:20:00,
2013-01-01 02:22:00,49.0,31.6,30.15,North,353,1.0,7.0,51,0.00,,,0.00,Wunderground v.1.15,2013-01-01 07:22:00,
2013-01-01 02:25:00,49.1,31.7,30.15,North,0,1.0,-999.0,51,0.00,,,0.24,Wunderground v.1.15,2013-01-01 07:25:00,
2013-01-01 02:28:00,49.1,31.2,30.15,NNE,31,2.0,7.0,50,0.00,,,0.00,Wunderground v.1.15,2013-01-01 07:28:00,
2013-01-01 02:30:00,49.1,31.7,30.15,North,0,1.0,-999.0,51,0.00,,,0.24,Wunderground v.1.15,2013-01-01 07:30:00,
2013-01-01 02:34:00,49.2,31.3,30.15,NNE,21,1.0,7.0,50,0.00,,,0.00,Wunderground v.1.15,2013-01-01 07:34:00,
2013-01-01 02:35:00,49.1,31.7,30.15,North,0,1.0,-999.0,51,0.00,,,0.24,Wunderground v.1.15,2013-01-01 07:35:00,
2013-01-01 02:40:00,49.2,30.8,30.14,North,1,1.0,7.0,49,0.00,,,0.00,Wunderground v.1.15,2013-01-01 07:40:00,
2013-01-01 02:45:00,49.5,31.1,30.14,North,0,1.0,-999.0,49,0.00,,,0.24,Wunderground v.1.15,2013-01-01 07:45:00,
2013-01-01 02:46:00,49.4,32.0,30.15,North,3,2.0,7.0,51,0.00,,,0.00,Wunderground v.1.15,2013-01-01 07:46:00,
2013-01-01 02:50:00,49.5,31.1,30.14,North,0,1.0,-999.0,49,0.00,,,0.24,Wunderground v.1.15,2013-01-01 07:50:00,
2013-01-01 02:52:00,49.4,31.5,30.14,North,358,1.0,2.0,50,0.00,,,0.00,Wunderground v.1.15,2013-01-01 07:52:00,
2013-01-01 02:55:00,49.5,31.1,30.14,North,0,1.0,-999.0,49,0.00,,,0.24,Wunderground v.1.15,2013-01-01 07:55:00,
2013-01-01 02:58:00,49.5,31.6,30.14,NNW,345,1.0,7.0,50,0.00,,,0.00,Wunderground v.1.15,2013-01-01 07:58:00,
2013-01-01 03:00:00,49.5,31.1,30.14,North,0,1.0,-999.0,49,0.00,,,0.24,Wunderground v.1.15,2013-01-01 08:00:00,
2013-01-01 03:04:00,49.6,31.2,30.14,North,354,2.0,7.0,49,0.00,,,0.00,Wunderground v.1.15,2013-01-01 08:04:00,
2013-01-01 03:05:00,49.5,31.1,30.14,North,0,1.0,-999.0,49,0.00,,,0.24,Wunderground v.1.15,2013-01-01 08:05:00,
2013-01-01 03:10:00,49.6,31.7,30.14,North,5,2.0,2.0,50,0.00,,,0.00,Wunderground v.1.15,2013-01-01 08:10:00,
2013-01-01 03:15:00,49.6,32.2,30.16,NNE,23,1.0,-999.0,51,0.00,,,0.24,Wunderground v.1.15,2013-01-01 08:15:00,
2013-01-01 03:16:00,49.6,32.7,30.14,NNE,22,1.0,7.0,52,0.00,,,0.00,Wunderground v.1.15,2013-01-01 08:16:00,
2013-01-01 03:20:00,49.6,32.2,30.16,NNE,23,1.0,-999.0,51,0.00,,,0.24,Wunderground v.1.15,2013-01-01 08:20:00,
2013-01-01 03:22:00,49.6,32.2,30.15,NNW,347,1.0,7.0,51,0.00,,,0.00,Wunderground v.1.15,2013-01-01 08:22:00,
2013-01-01 03:25:00,49.6,32.2,30.16,NNE,23,1.0,-999.0,51,0.00,,,0.24,Wunderground v.1.15,2013-01-01 08:25:00,
2013-01-01 03:28:00,49.5,32.1,30.15,NE,50,1.0,7.0,51,0.00,,,0.00,Wunderground v.1.15,2013-01-01 08:28:00,
2013-01-01 03:30:00,49.6,32.2,30.16,NNE,23,1.0,-999.0,51,0.00,,,0.24,Wunderground v.1.15,2013-01-01 08:30:00,
2013-01-01 03:34:00,49.6,32.2,30.15,NE,50,1.0,7.0,51,0.00,,,0.00,Wunderground v.1.15,2013-01-01 08:34:00,
2013-01-01 03:35:00,49.6,32.2,30.16,NNE,23,1.0,-999.0,51,0.00,,,0.24,Wunderground v.1.15,2013-01-01 08:35:00,
2013-01-01 03:40:00,49.6,32.7,30.15,North,358,1.0,7.0,52,0.00,,,0.00,Wunderground v.1.15,2013-01-01 08:40:00,
2013-01-01 03:45:00,49.9,33.0,30.14,NNE,23,2.0,-999.0,52,0.00,,,0.24,Wunderground v.1.15,2013-01-01 08:45:00,
2013-01-01 03:46:00,49.7,32.8,30.15,NNE,14,1.0,7.0,52,0.00,,,0.00,Wunderground v.1.15,2013-01-01 08:46:00,
2013-01-01 03:50:00,49.9,33.0,30.14,NNE,23,2.0,-999.0,52,0.00,,,0.24,Wunderground v.1.15,2013-01-01 08:50:00,
2013-01-01 03:52:00,49.8,32.9,30.15,North,3,2.0,7.0,52,0.00,,,0.00,Wunderground v.1.15,2013-01-01 08:52:00,
2013-01-01 03:55:00,49.9,33.0,30.14,NNE,23,2.0,-999.0,52,0.00,,,0.24,Wunderground v.1.15,2013-01-01 08:55:00,
2013-01-01 03:58:00,49.9,33.0,30.14,NNE,33,2.0,7.0,52,0.00,,,0.00,Wunderground v.1.15,2013-01-01 08:58:00,
2013-01-01 04:00:00,49.9,33.0,30.14,NNE,23,2.0,-999.0,52,0.00,,,0.24,Wunderground v.1.15,2013-01-01 09:00:00,
2013-01-01 04:04:00,49.9,33.0,30.14,NE,35,2.0,7.0,52,0.00,,,0.00,Wunderground v.1.15,2013-01-01 09:04:00,
2013-01-01 04:05:00,49.9,33.0,30.14,NNE,23,2.0,-999.0,52,0.00,,,0.24,Wunderground v.1.15,2013-01-01 09:05:00,
2013-01-01 04:10:00,49.8,33.3,30.15,East,92,2.0,7.0,53,0.00,,,0.00,Wunderground v.1.15,2013-01-01 09:10:00,
2013-01-01 04:15:00,49.5,33.5,30.14,North,0,1.0,-999.0,54,0.00,,,0.24,Wunderground v.1.15,2013-01-01 09:15:00,
2013-01-01 04:16:00,49.8,33.3,30.14,North,358,2.0,7.0,53,0.00,,,0.00,Wunderground v.1.15,2013-01-01 09:16:00,
2013-01-01 04:20:00,49.5,33.5,30.14,North,0,1.0,-999.0,54,0.00,,,0.24,Wunderground v.1.15,2013-01-01 09:20:00,
2013-01-01 04:22:00,49.7,33.2,30.15,ENE,74,1.0,7.0,53,0.00,,,0.00,Wunderground v.1.15,2013-01-01 09:22:00,
2013-01-01 04:25:00,49.5,33.5,30.14,North,0,1.0,-999.0,54,0.00,,,0.24,Wunderground v.1.15,2013-01-01 09:25:00,
2013-01-01 04:28:00,49.6,33.6,30.14,NNE,20,1.0,7.0,54,0.00,,,0.00,Wunderground v.1.15,2013-01-01 09:28:00,
2013-01-01 04:30:00,49.5,33.5,30.14,North,0,1.0,-999.0,54,0.00,,,0.24,Wunderground v.1.15,2013-01-01 09:30:00,
2013-01-01 04:34:00,49.4,33.4,30.14,NNE,12,1.0,7.0,54,0.00,,,0.00,Wunderground v.1.15,2013-01-01 09:34:00,
2013-01-01 04:35:00,49.5,33.5,30.14,North,0,1.0,-999.0,54,0.00,,,0.24,Wunderground v.1.15,2013-01-01 09:35:00,
2013-01-01 04:40:00,49.2,33.7,30.13,NNE,25,1.0,7.0,55,0.00,,,0.00,Wunderground v.1.15,2013-01-01 09:40:00,
2013-01-01 04:45:00,49.0,34.9,30.12,North,0,1.0,-999.0,58,0.00,,,0.24,Wunderground v.1.15,2013-01-01 09:45:00,
2013-01-01 04:46:00,49.0,34.0,30.12,NNE,31,1.0,7.0,56,0.00,,,0.00,Wunderground v.1.15,2013-01-01 09:46:00,
2013-01-01 04:50:00,49.0,34.9,30.12,North,0,1.0,-999.0,58,0.00,,,0.24,Wunderground v.1.15,2013-01-01 09:50:00,
2013-01-01 04:52:00,49.0,34.4,30.12,ENE,77,1.0,7.0,57,0.00,,,0.00,Wunderground v.1.15,2013-01-01 09:52:00,
2013-01-01 04:55:00,49.0,34.9,30.12,North,0,1.0,-999.0,58,0.00,,,0.24,Wunderground v.1.15,2013-01-01 09:55:00,
2013-01-01 04:58:00,49.1,34.9,30.13,North,358,1.0,7.0,58,0.00,,,0.00,Wunderground v.1.15,2013-01-01 09:58:00,
2013-01-01 05:00:00,49.0,34.9,30.12,North,0,1.0,-999.0,58,0.00,,,0.24,Wunderground v.1.15,2013-01-01 10:00:00,
2013-01-01 05:04:00,49.0,34.9,30.12,NNW,328,1.0,7.0,58,0.00,,,0.00,Wunderground v.1.15,2013-01-01 10:04:00,
2013-01-01 05:05:00,49.0,34.9,30.12,North,0,1.0,-999.0,58,0.00,,,0.24,Wunderground v.1.15,2013-01-01 10:05:00,
2013-01-01 05:10:00,48.8,35.5,30.13,NNE,13,1.0,7.0,60,0.00,,,0.00,Wunderground v.1.15,2013-01-01 10:10:00,
2013-01-01 05:15:00,48.8,36.4,30.13,NE,45,1.0,-999.0,62,0.00,,,0.24,Wunderground v.1.15,2013-01-01 10:15:00,
2013-01-01 05:16:00,48.6,35.7,30.13,NW,310,0.0,7.0,61,0.00,,,0.00,Wunderground v.1.15,2013-01-01 10:16:00,
2013-01-01 05:20:00,48.8,36.4,30.13,NE,45,1.0,-999.0,62,0.00,,,0.24,Wunderground v.1.15,2013-01-01 10:20:00,
2013-01-01 05:22:00,48.7,36.3,30.13,North,8,1.0,7.0,62,0.00,,,0.00,Wunderground v.1.15,2013-01-01 10:22:00,
2013-01-01 05:25:00,48.8,36.4,30.13,NE,45,1.0,-999.0,62,0.00,,,0.24,Wunderground v.1.15,2013-01-01 10:25:00,
2013-01-01 05:28:00,48.8,36.4,30.13,NNW,338,1.0,7.0,62,0.00,,,0.00,Wunderground v.1.15,2013-01-01 10:28:00,
2013-01-01 05:30:00,48.8,36.4,30.13,NE,45,1.0,-999.0,62,0.00,,,0.24,Wunderground v.1.15,2013-01-01 10:30:00,
2013-01-01 05:34:00,48.8,36.4,30.13,NNE,12,1.0,7.0,62,0.00,,,0.00,Wunderground v.1.15,2013-01-01 10:34:00,
2013-01-01 05:35:00,48.8,36.4,30.13,NE,45,1.0,-999.0,62,0.00,,,0.24,Wunderground v.1.15,2013-01-01 10:35:00,
2013-01-01 05:40:00,48.7,36.7,30.13,NNE,23,1.0,1.0,63,0.00,,,0.00,Wunderground v.1.15,2013-01-01 10:40:00,
2013-01-01 05:45:00,48.5,37.3,30.13,NNE,23,0.0,-999.0,65,0.00,,,0.24,Wunderground v.1.15,2013-01-01 10:45:00,
2013-01-01 05:46:00,48.6,37.0,30.13,ENE,58,0.0,7.0,64,0.00,,,0.00,Wunderground v.1.15,2013-01-01 10:46:00,
2013-01-01 05:50:00,48.5,37.3,30.13,NNE,23,0.0,-999.0,65,0.00,,,0.24,Wunderground v.1.15,2013-01-01 10:50:00,
2013-01-01 05:52:00,48.5,36.9,30.13,ENE,61,0.0,7.0,64,0.00,,,0.00,Wunderground v.1.15,2013-01-01 10:52:00,
2013-01-01 05:55:00,48.5,37.3,30.13,NNE,23,0.0,-999.0,65,0.00,,,0.24,Wunderground v.1.15,2013-01-01 10:55:00,
2013-01-01 05:58:00,48.5,36.9,30.13,NE,50,0.0,7.0,64,0.00,,,0.00,Wunderground v.1.15,2013-01-01 10:58:00,
2013-01-01 06:00:00,48.5,37.3,30.13,NNE,23,0.0,-999.0,65,0.00,,,0.24,Wunderground v.1.15,2013-01-01 11:00:00,
2013-01-01 06:04:00,48.5,37.3,30.13,NE,51,0.0,7.0,65,0.00,,,0.00,Wunderground v.1.15,2013-01-01 11:04:00,
2013-01-01 06:05:00,48.5,37.3,30.13,NNE,23,0.0,-999.0,65,0.00,,,0.24,Wunderground v.1.15,2013-01-01 11:05:00,
2013-01-01 06:10:00,48.5,37.7,30.13,ENE,60,0.0,7.0,66,0.00,,,0.00,Wunderground v.1.15,2013-01-01 11:10:00,
2013-01-01 06:15:00,48.2,37.8,30.13,NE,45,0.0,-999.0,67,0.00,,,0.24,Wunderground v.1.15,2013-01-01 11:15:00,
2013-01-01 06:16:00,48.4,37.6,30.14,ENE,61,0.0,7.0,66,0.00,,,0.00,Wunderground v.1.15,2013-01-01 11:16:00,
2013-01-01 06:20:00,48.2,37.8,30.13,NE,45,0.0,-999.0,67,0.00,,,0.24,Wunderground v.1.15,2013-01-01 11:20:00,
2013-01-01 06:22:00,48.3,37.8,30.14,NE,47,0.0,7.0,67,0.00,,,0.00,Wunderground v.1.15,2013-01-01 11:22:00,
2013-01-01 06:25:00,48.2,37.8,30.13,NE,45,0.0,-999.0,67,0.00,,,0.24,Wunderground v.1.15,2013-01-01 11:25:00,
2013-01-01 06:28:00,48.3,37.8,30.13,NE,47,0.0,7.0,67,0.00,,,0.00,Wunderground v.1.15,2013-01-01 11:28:00,
2013-01-01 06:30:00,48.2,37.8,30.13,NE,45,0.0,-999.0,67,0.00,,,0.24,Wunderground v.1.15,2013-01-01 11:30:00,
2013-01-01 06:34:00,48.2,37.8,30.13,NE,35,0.0,7.0,67,0.00,,,0.00,Wunderground v.1.15,2013-01-01 11:34:00,
2013-01-01 06:35:00,48.2,37.8,30.13,NE,45,0.0,-999.0,67,0.00,,,0.24,Wunderground v.1.15,2013-01-01 11:35:00,
2013-01-01 06:40:00,48.1,37.7,30.14,NNE,24,0.0,7.0,67,0.00,,,0.00,Wunderground v.1.15,2013-01-01 11:40:00,
2013-01-01 06:45:00,47.8,38.1,30.14,NNE,23,0.0,-999.0,69,0.00,,,0.24,Wunderground v.1.15,2013-01-01 11:45:00,
2013-01-01 06:46:00,48.0,37.9,30.14,NNE,24,0.0,7.0,68,0.00,,,0.00,Wunderground v.1.15,2013-01-01 11:46:00,
2013-01-01 06:50:00,47.8,38.1,30.14,NNE,23,0.0,-999.0,69,0.00,,,0.24,Wunderground v.1.15,2013-01-01 11:50:00,
2013-01-01 06:52:00,47.9,38.2,30.14,NNE,24,0.0,7.0,69,0.00,,,0.00,Wunderground v.1.15,2013-01-01 11:52:00,
2013-01-01 06:55:00,47.8,38.1,30.14,NNE,23,0.0,-999.0,69,0.00,,,0.24,Wunderground v.1.15,2013-01-01 11:55:00,
2013-01-01 06:58:00,47.8,38.5,30.14,NNE,24,0.0,7.0,70,0.00,,,0.00,Wunderground v.1.15,2013-01-01 11:58:00,
2013-01-01 07:00:00,47.8,38.1,30.14,NNE,23,0.0,-999.0,69,0.00,,,0.24,Wunderground v.1.15,2013-01-01 12:00:00,
2013-01-01 07:04:00,47.8,37.7,30.14,North,360,0.0,7.0,68,0.00,,,0.00,Wunderground v.1.15,2013-01-01 12:04:00,
2013-01-01 07:05:00,47.8,38.1,30.14,NNE,23,0.0,-999.0,69,0.00,,,0.24,Wunderground v.1.15,2013-01-01 12:05:00,
2013-01-01 07:10:00,47.9,37.8,30.14,NNW,343,0.0,7.0,68,0.00,,,0.00,Wunderground v.1.15,2013-01-01 12:10:00,
2013-01-01 07:15:00,47.9,38.6,30.15,North,0,0.0,-999.0,70,0.00,,,0.24,Wunderground v.1.15,2013-01-01 12:15:00,
2013-01-01 07:16:00,48.0,38.3,30.14,NNW,336,0.0,7.0,69,0.00,,,0.00,Wunderground v.1.15,2013-01-01 12:16:00,
2013-01-01 07:20:00,47.9,38.6,30.15,North,0,0.0,-999.0,70,0.00,,,0.24,Wunderground v.1.15,2013-01-01 12:20:00,
2013-01-01 07:22:00,48.0,38.3,30.15,NNW,336,0.0,7.0,69,0.00,,,0.00,Wunderground v.1.15,2013-01-01 12:22:00,
2013-01-01 07:25:00,47.9,38.6,30.15,North,0,0.0,-999.0,70,0.00,,,0.24,Wunderground v.1.15,2013-01-01 12:25:00,
2013-01-01 07:28:00,47.9,38.2,30.14,NNW,336,0.0,7.0,69,0.00,,,0.00,Wunderground v.1.15,2013-01-01 12:28:00,
2013-01-01 07:30:00,47.9,38.6,30.15,North,0,0.0,-999.0,70,0.00,,,0.24,Wunderground v.1.15,2013-01-01 12:30:00,
2013-01-01 07:34:00,47.9,38.2,30.15,NNW,336,0.0,7.0,69,0.00,,,0.00,Wunderground v.1.15,2013-01-01 12:34:00,
2013-01-01 07:35:00,47.9,38.6,30.15,North,0,0.0,-999.0,70,0.00,,,0.24,Wunderground v.1.15,2013-01-01 12:35:00,
2013-01-01 07:40:00,47.9,38.6,30.14,NNW,336,0.0,7.0,70,0.00,,,0.00,Wunderground v.1.15,2013-01-01 12:40:00,
2013-01-01 07:45:00,48.0,38.7,30.15,NNW,338,0.0,-999.0,70,0.00,,,0.24,Wunderground v.1.15,2013-01-01 12:45:00,
2013-01-01 07:46:00,47.9,38.6,30.15,NNW,336,0.0,7.0,70,0.00,,,0.00,Wunderground v.1.15,2013-01-01 12:46:00,
2013-01-01 07:50:00,48.0,38.7,30.15,NNW,338,0.0,-999.0,70,0.00,,,0.24,Wunderground v.1.15,2013-01-01 12:50:00,
2013-01-01 07:52:00,47.9,38.6,30.15,NNW,336,0.0,7.0,70,0.00,,,0.00,Wunderground v.1.15,2013-01-01 12:52:00,
2013-01-01 07:55:00,48.0,38.7,30.15,NNW,338,0.0,-999.0,70,0.00,,,0.24,Wunderground v.1.15,2013-01-01 12:55:00,
2013-01-01 07:58:00,47.9,38.6,30.15,NNW,342,0.0,7.0,70,0.00,,,0.00,Wunderground v.1.15,2013-01-01 12:58:00,
2013-01-01 08:00:00,48.0,38.7,30.15,NNW,338,0.0,-999.0,70,0.00,,,0.24,Wunderground v.1.15,2013-01-01 13:00:00,
2013-01-01 08:04:00,48.0,38.7,30.16,NNW,342,0.0,7.0,70,0.00,,,0.00,Wunderground v.1.15,2013-01-01 13:04:00,
2013-01-01 08:05:00,48.0,38.7,30.15,NNW,338,0.0,-999.0,70,0.00,,,0.24,Wunderground v.1.15,2013-01-01 13:05:00,
2013-01-01 08:10:00,48.1,39.1,30.16,North,2,0.0,7.0,71,0.00,,,0.00,Wunderground v.1.15,2013-01-01 13:10:00,
2013-01-01 08:15:00,48.3,39.7,30.16,NNW,338,0.0,-999.0,72,0.00,,,0.24,Wunderground v.1.15,2013-01-01 13:15:00,
2013-01-01 08:16:00,48.2,39.2,30.16,NNE,21,1.0,7.0,71,0.00,,,0.00,Wunderground v.1.15,2013-01-01 13:16:00,
2013-01-01 08:20:00,48.3,39.7,30.16,NNW,338,0.0,-999.0,72,0.00,,,0.24,Wunderground v.1.15,2013-01-01 13:20:00,
2013-01-01 08:22:00,48.2,39.2,30.16,North,349,0.0,7.0,71,0.00,,,0.00,Wunderground v.1.15,2013-01-01 13:22:00,
2013-01-01 08:25:00,48.3,39.7,30.16,NNW,338,0.0,-999.0,72,0.00,,,0.24,Wunderground v.1.15,2013-01-01 13:25:00,
2013-01-01 08:28:00,48.3,39.7,30.16,NNW,331,0.0,7.0,72,0.00,,,0.00,Wunderground v.1.15,2013-01-01 13:28:00,
2013-01-01 08:30:00,48.3,39.7,30.16,NNW,338,0.0,-999.0,72,0.00,,,0.24,Wunderground v.1.15,2013-01-01 13:30:00,
2013-01-01 08:34:00,48.3,40.0,30.16,NNW,333,0.0,7.0,73,0.00,,,0.00,Wunderground v.1.15,2013-01-01 13:34:00,
2013-01-01 08:35:00,48.3,39.7,30.16,NNW,338,0.0,-999.0,72,0.00,,,0.24,Wunderground v.1.15,2013-01-01 13:35:00,
2013-01-01 08:40:00,48.3,40.0,30.17,NNW,340,0.0,7.0,73,0.00,,,0.00,Wunderground v.1.15,2013-01-01 13:40:00,
2013-01-01 08:45:00,48.5,40.6,30.17,NE,45,0.0,-999.0,74,0.00,,,0.24,Wunderground v.1.15,2013-01-01 13:45:00,
2013-01-01 08:46:00,48.4,40.5,30.17,NE,45,0.0,7.0,74,0.00,,,0.00,Wunderground v.1.15,2013-01-01 13:46:00,
2013-01-01 08:50:00,48.5,40.6,30.17,NE,45,0.0,-999.0,74,0.00,,,0.24,Wunderground v.1.15,2013-01-01 13:50:00,
2013-01-01 08:52:00,48.4,40.5,30.17,NE,45,0.0,7.0,74,0.00,,,0.00,Wunderground v.1.15,2013-01-01 13:52:00,
2013-01-01 08:55:00,48.5,40.6,30.17,NE,45,0.0,-999.0,74,0.00,,,0.24,Wunderground v.1.15,2013-01-01 13:55:00,
2013-01-01 08:58:00,48.5,40.6,30.17,NE,41,0.0,7.0,74,0.00,,,0.00,Wunderground v.1.15,2013-01-01 13:58:00,
2013-01-01 09:00:00,48.5,40.6,30.17,NE,45,0.0,-999.0,74,0.00,,,0.24,Wunderground v.1.15,2013-01-01 14:00:00,
2013-01-01 09:04:00,48.5,40.9,30.17,NE,55,0.0,7.0,75,0.00,,,0.00,Wunderground v.1.15,2013-01-01 14:04:00,
2013-01-01 09:05:00,48.5,40.6,30.17,NE,45,0.0,-999.0,74,0.00,,,0.24,Wunderground v.1.15,2013-01-01 14:05:00,
2013-01-01 09:10:00,48.6,41.0,30.16,NE,46,0.0,7.0,75,0.00,,,0.00,Wunderground v.1.15,2013-01-01 14:10:00,
2013-01-01 09:15:00,48.8,41.2,30.17,North,0,0.0,-999.0,75,0.00,,,0.24,Wunderground v.1.15,2013-01-01 14:15:00,
2013-01-01 09:16:00,48.6,41.0,30.16,North,6,0.0,7.0,75,0.00,,,0.00,Wunderground v.1.15,2013-01-01 14:16:00,
2013-01-01 09:20:00,48.8,41.2,30.17,North,0,0.0,-999.0,75,0.00,,,0.24,Wunderground v.1.15,2013-01-01 14:20:00,
2013-01-01 09:22:00,48.7,41.5,30.17,NNW,341,0.0,7.0,76,0.00,,,0.00,Wunderground v.1.15,2013-01-01 14:22:00,
2013-01-01 09:25:00,48.8,41.2,30.17,North,0,0.0,-999.0,75,0.00,,,0.24,Wunderground v.1.15,2013-01-01 14:25:00,
2013-01-01 09:28:00,48.8,41.6,30.17,North,351,1.0,7.0,76,0.00,,,0.00,Wunderground v.1.15,2013-01-01 14:28:00,
2013-01-01 09:30:00,48.8,41.2,30.17,North,0,0.0,-999.0,75,0.00,,,0.24,Wunderground v.1.15,2013-01-01 14:30:00,
2013-01-01 09:34:00,48.8,41.6,30.17,North,353,1.0,7.0,76,0.00,,,0.00,Wunderground v.1.15,2013-01-01 14:34:00,
2013-01-01 09:35:00,48.8,41.2,30.17,North,0,0.0,-999.0,75,0.00,,,0.24,Wunderground v.1.15,2013-01-01 14:35:00,
2013-01-01 09:40:00,48.8,41.6,30.17,North,356,1.0,1.0,76,0.00,,,0.00,Wunderground v.1.15,2013-01-01 14:40:00,
2013-01-01 09:45:00,49.0,41.8,30.17,NNW,338,1.0,-999.0,76,0.00,,,0.24,Wunderground v.1.15,2013-01-01 14:45:00,
2013-01-01 09:46:00,48.9,41.7,30.18,NNW,347,0.0,7.0,76,0.00,,,0.00,Wunderground v.1.15,2013-01-01 14:46:00,
2013-01-01 09:50:00,49.0,41.8,30.17,NNW,338,1.0,-999.0,76,0.00,,,0.24,Wunderground v.1.15,2013-01-01 14:50:00,
2013-01-01 09:52:00,49.0,41.8,30.17,NNW,328,1.0,7.0,76,0.00,,,0.00,Wunderground v.1.15,2013-01-01 14:52:00,
2013-01-01 09:55:00,49.0,41.8,30.17,NNW,338,1.0,-999.0,76,0.00,,,0.24,Wunderground v.1.15,2013-01-01 14:55:00,
2013-01-01 09:58:00,49.0,41.8,30.17,NNW,344,0.0,7.0,76,0.00,,,0.00,Wunderground v.1.15,2013-01-01 14:58:00,
2013-01-01 10:00:00,49.0,41.8,30.17,NNW,338,1.0,-999.0,76,0.00,,,0.24,Wunderground v.1.15,2013-01-01 15:00:00,
2013-01-01 10:04:00,49.0,41.8,30.16,NW,319,0.0,7.0,76,0.00,,,0.00,Wunderground v.1.15,2013-01-01 15:04:00,
2013-01-01 10:05:00,49.0,41.8,30.17,NNW,338,1.0,-999.0,76,0.00,,,0.24,Wunderground v.1.15,2013-01-01 15:05:00,
2013-01-01 10:10:00,49.0,41.8,30.16,NW,326,0.0,7.0,76,0.00,,,0.00,Wunderground v.1.15,2013-01-01 15:10:00,
2013-01-01 10:16:00,49.0,42.4,30.16,West,272,0.0,7.0,78,0.00,,,0.00,Wunderground v.1.15,2013-01-01 15:16:00,
2013-01-01 10:20:00,48.6,43.4,30.16,WNW,293,0.0,-999.0,82,0.00,,,0.24,Wunderground v.1.15,2013-01-01 15:20:00,
2013-01-01 10:22:00,48.9,43.3,30.16,West,272,0.0,7.0,81,0.00,,,0.00,Wunderground v.1.15,2013-01-01 15:22:00,
2013-01-01 10:25:00,48.6,43.4,30.16,WNW,293,0.0,-999.0,82,0.00,,,0.24,Wunderground v.1.15,2013-01-01 15:25:00,
2013-01-01 10:28:00,48.7,43.1,30.16,North,352,0.0,7.0,81,0.00,,,0.00,Wunderground v.1.15,2013-01-01 15:28:00,
2013-01-01 10:30:00,48.6,43.4,30.16,WNW,293,0.0,-999.0,82,0.00,,,0.24,Wunderground v.1.15,2013-01-01 15:30:00,
2013-01-01 10:34:00,48.5,43.3,30.16,WNW,283,0.0,7.0,82,0.00,,,0.01,Wunderground v.1.15,2013-01-01 15:34:00,
2013-01-01 10:35:00,48.6,43.4,30.16,WNW,293,0.0,-999.0,82,0.00,,,0.24,Wunderground v.1.15,2013-01-01 15:35:00,
2013-01-01 10:40:00,48.4,43.8,30.16,WNW,283,0.0,7.0,84,0.00,,,0.01,Wunderground v.1.15,2013-01-01 15:40:00,
2013-01-01 10:45:00,47.8,44.7,30.15,WNW,293,0.0,-999.0,89,0.02,,,0.24,Wunderground v.1.15,2013-01-01 15:45:00,
2013-01-01 10:46:00,48.2,43.9,30.15,WNW,283,0.0,7.0,85,0.00,,,0.01,Wunderground v.1.15,2013-01-01 15:46:00,
2013-01-01 10:50:00,47.8,44.7,30.15,WNW,293,0.0,-999.0,89,0.02,,,0.24,Wunderground v.1.15,2013-01-01 15:50:00,
2013-01-01 10:52:00,48.0,44.3,30.15,WNW,283,0.0,7.0,87,0.00,,,0.01,Wunderground v.1.15,2013-01-01 15:52:00,
2013-01-01 10:55:00,47.8,44.7,30.15,WNW,293,0.0,-999.0,89,0.02,,,0.24,Wunderground v.1.15,2013-01-01 15:55:00,
2013-01-01 10:58:00,47.9,44.5,30.15,WNW,283,0.0,7.0,88,0.00,,,0.02,Wunderground v.1.15,2013-01-01 15:58:00,
2013-01-01 11:00:00,47.8,44.7,30.15,WNW,293,0.0,-999.0,89,0.02,,,0.24,Wunderground v.1.15,2013-01-01 16:00:00,
2013-01-01 11:04:00,47.7,44.3,30.15,NW,323,0.0,7.0,88,0.00,,,0.02,Wunderground v.1.15,2013-01-01 16:04:00,
2013-01-01 11:05:00,47.8,44.7,30.15,WNW,293,0.0,-999.0,89,0.02,,,0.24,Wunderground v.1.15,2013-01-01 16:05:00,
2013-01-01 11:10:00,47.6,44.5,30.14,WNW,291,0.0,7.0,89,0.00,,,0.02,Wunderground v.1.15,2013-01-01 16:10:00,
2013-01-01 11:15:00,47.8,45.3,30.15,NW,315,1.0,-999.0,91,0.02,,,0.24,Wunderground v.1.15,2013-01-01 16:15:00,
2013-01-01 11:16:00,47.5,44.7,30.15,NW,311,0.0,7.0,90,0.00,,,0.02,Wunderground v.1.15,2013-01-01 16:16:00,
2013-01-01 11:20:00,47.8,45.3,30.15,NW,315,1.0,-999.0,91,0.02,,,0.24,Wunderground v.1.15,2013-01-01 16:20:00,
2013-01-01 11:22:00,47.6,44.8,30.14,North,11,1.0,7.0,90,0.00,,,0.02,Wunderground v.1.15,2013-01-01 16:22:00,
2013-01-01 11:25:00,47.8,45.3,30.15,NW,315,1.0,-999.0,91,0.02,,,0.24,Wunderground v.1.15,2013-01-01 16:25:00,
2013-01-01 11:28:00,47.7,45.2,30.14,North,7,1.0,7.0,91,0.00,,,0.02,Wunderground v.1.15,2013-01-01 16:28:00,
2013-01-01 11:30:00,47.8,45.3,30.15,NW,315,1.0,-999.0,91,0.02,,,0.24,Wunderground v.1.15,2013-01-01 16:30:00,
2013-01-01 11:34:00,47.8,45.3,30.15,NNW,341,1.0,7.0,91,0.00,,,0.02,Wunderground v.1.15,2013-01-01 16:34:00,
2013-01-01 11:35:00,47.8,45.3,30.15,NW,315,1.0,-999.0,91,0.02,,,0.24,Wunderground v.1.15,2013-01-01 16:35:00,
2013-01-01 11:40:00,48.1,45.6,30.14,WNW,300,1.0,7.0,91,0.00,,,0.02,Wunderground v.1.15,2013-01-01 16:40:00,
2013-01-01 11:45:00,49.3,47.4,30.12,NNW,338,1.0,-999.0,93,0.00,,,0.24,Wunderground v.1.15,2013-01-01 16:45:00,
2013-01-01 11:46:00,48.4,46.2,30.13,NNW,339,1.0,7.0,92,0.00,,,0.02,Wunderground v.1.15,2013-01-01 16:46:00,
2013-01-01 11:50:00,49.3,47.4,30.12,NNW,338,1.0,-999.0,93,0.00,,,0.24,Wunderground v.1.15,2013-01-01 16:50:00,
2013-01-01 11:52:00,48.9,46.7,30.14,NE,44,1.0,7.0,92,0.00,,,0.02,Wunderground v.1.15,2013-01-01 16:52:00,
2013-01-01 11:55:00,49.3,47.4,30.12,NNW,338,1.0,-999.0,93,0.00,,,0.24,Wunderground v.1.15,2013-01-01 16:55:00,
2013-01-01 11:58:00,49.1,46.9,30.12,NNE,25,1.0,7.0,92,0.00,,,0.02,Wunderground v.1.15,2013-01-01 16:58:00,
2013-01-01 12:00:00,49.3,47.4,30.12,NNW,338,1.0,-999.0,93,0.00,,,0.24,Wunderground v.1.15,2013-01-01 17:00:00,
2013-01-01 12:04:00,49.6,47.4,30.12,North,4,1.0,7.0,92,0.00,,,0.02,Wunderground v.1.15,2013-01-01 17:04:00,
2013-01-01 12:05:00,49.3,47.4,30.12,NNW,338,1.0,-999.0,93,0.00,,,0.24,Wunderground v.1.15,2013-01-01 17:05:00,
2013-01-01 12:10:00,49.9,47.4,30.12,NNW,335,1.0,7.0,91,0.00,,,0.02,Wunderground v.1.15,2013-01-01 17:10:00,
2013-01-01 12:15:00,49.9,47.4,30.10,NNW,338,1.0,-999.0,91,0.00,,,0.24,Wunderground v.1.15,2013-01-01 17:15:00,
2013-01-01 12:16:00,50.0,47.5,30.11,NNW,339,1.0,7.0,91,0.00,,,0.02,Wunderground v.1.15,2013-01-01 17:16:00,
2013-01-01 12:20:00,49.9,47.4,30.10,NNW,338,1.0,-999.0,91,0.00,,,0.24,Wunderground v.1.15,2013-01-01 17:20:00,
2013-01-01 12:22:00,49.9,47.4,30.10,NW,319,2.0,7.0,91,0.00,,,0.02,Wunderground v.1.15,2013-01-01 17:22:00,
2013-01-01 12:25:00,49.9,47.4,30.10,NNW,338,1.0,-999.0,91,0.00,,,0.24,Wunderground v.1.15,2013-01-01 17:25:00,
2013-01-01 12:28:00,49.9,47.4,30.10,NNW,331,1.0,7.0,91,0.00,,,0.02,Wunderground v.1.15,2013-01-01 17:28:00,
2013-01-01 12:30:00,49.9,47.4,30.10,NNW,338,1.0,-999.0,91,0.00,,,0.24,Wunderground v.1.15,2013-01-01 17:30:00,
2013-01-01 12:34:00,49.9,47.4,30.10,North,7,1.0,7.0,91,0.00,,,0.02,Wunderground v.1.15,2013-01-01 17:34:00,
2013-01-01 12:35:00,49.9,47.4,30.10,NNW,338,1.0,-999.0,91,0.00,,,0.24,Wunderground v.1.15,2013-01-01 17:35:00,
2013-01-01 12:40:00,49.9,47.4,30.09,NNW,327,1.0,1.0,91,0.00,,,0.02,Wunderground v.1.15,2013-01-01 17:40:00,
2013-01-01 12:45:00,50.0,47.5,30.09,North,0,1.0,-999.0,91,0.00,,,0.24,Wunderground v.1.15,2013-01-01 17:45:00,
2013-01-01 12:46:00,49.9,47.4,30.09,North,355,2.0,7.0,91,0.00,,,0.02,Wunderground v.1.15,2013-01-01 17:46:00,
2013-01-01 12:50:00,50.0,47.5,30.09,North,0,1.0,-999.0,91,0.00,,,0.24,Wunderground v.1.15,2013-01-01 17:50:00,
2013-01-01 12:52:00,49.9,47.7,30.10,North,2,1.0,7.0,92,0.00,,,0.02,Wunderground v.1.15,2013-01-01 17:52:00,
2013-01-01 12:55:00,50.0,47.5,30.09,North,0,1.0,-999.0,91,0.00,,,0.24,Wunderground v.1.15,2013-01-01 17:55:00,
2013-01-01 12:58:00,50.0,47.8,30.08,North,355,1.0,7.0,92,0.00,,,0.02,Wunderground v.1.15,2013-01-01 17:58:00,
2013-01-01 13:00:00,50.0,47.5,30.09,North,0,1.0,-999.0,91,0.00,,,0.24,Wunderground v.1.15,2013-01-01 18:00:00,
2013-01-01 13:04:00,50.1,47.9,30.09,North,355,1.0,7.0,92,0.00,,,0.02,Wunderground v.1.15,2013-01-01 18:04:00,
2013-01-01 13:05:00,50.0,47.5,30.09,North,0,1.0,-999.0,91,0.00,,,0.24,Wunderground v.1.15,2013-01-01 18:05:00,
2013-01-01 13:10:00,50.2,48.0,30.10,NNE,21,1.0,1.0,92,0.00,,,0.02,Wunderground v.1.15,2013-01-01 18:10:00,
2013-01-01 13:15:00,50.2,48.0,30.08,North,0,1.0,-999.0,92,0.00,,,0.24,Wunderground v.1.15,2013-01-01 18:15:00,
2013-01-01 13:16:00,50.1,47.9,30.09,ENE,63,1.0,7.0,92,0.00,,,0.02,Wunderground v.1.15,2013-01-01 18:16:00,
2013-01-01 13:20:00,50.2,48.0,30.08,North,0,1.0,-999.0,92,0.00,,,0.24,Wunderground v.1.15,2013-01-01 18:20:00,
2013-01-01 13:22:00,50.1,47.9,30.09,NNW,345,1.0,7.0,92,0.00,,,0.02,Wunderground v.1.15,2013-01-01 18:22:00,
2013-01-01 13:25:00,50.2,48.0,30.08,North,0,1.0,-999.0,92,0.00,,,0.24,Wunderground v.1.15,2013-01-01 18:25:00,
2013-01-01 13:28:00,50.1,47.9,30.08,North,352,1.0,7.0,92,0.00,,,0.02,Wunderground v.1.15,2013-01-01 18:28:00,
2013-01-01 13:30:00,50.2,48.0,30.08,North,0,1.0,-999.0,92,0.00,,,0.24,Wunderground v.1.15,2013-01-01 18:30:00,
2013-01-01 13:34:00,50.2,48.0,30.08,NNE,32,0.0,7.0,92,0.00,,,0.02,Wunderground v.1.15,2013-01-01 18:34:00,
2013-01-01 13:35:00,50.2,48.0,30.08,North,0,1.0,-999.0,92,0.00,,,0.24,Wunderground v.1.15,2013-01-01 18:35:00,
2013-01-01 13:40:00,50.3,48.1,30.07,North,353,0.0,7.0,92,0.00,,,0.02,Wunderground v.1.15,2013-01-01 18:40:00,
2013-01-01 13:45:00,50.5,48.6,30.07,North,0,0.0,-999.0,93,0.01,,,0.24,Wunderground v.1.15,2013-01-01 18:45:00,
2013-01-01 13:46:00,50.4,48.5,30.07,North,351,1.0,7.0,93,0.00,,,0.02,Wunderground v.1.15,2013-01-01 18:46:00,
2013-01-01 13:50:00,50.5,48.6,30.07,North,0,0.0,-999.0,93,0.01,,,0.24,Wunderground v.1.15,2013-01-01 18:50:00,
2013-01-01 13:52:00,50.4,48.5,30.06,NNE,16,0.0,7.0,93,0.00,,,0.03,Wunderground v.1.15,2013-01-01 18:52:00,
2013-01-01 13:55:00,50.5,48.6,30.07,North,0,0.0,-999.0,93,0.01,,,0.24,Wunderground v.1.15,2013-01-01 18:55:00,
2013-01-01 13:58:00,50.5,48.6,30.07,North,353,0.0,7.0,93,0.00,,,0.03,Wunderground v.1.15,2013-01-01 18:58:00,
2013-01-01 14:00:00,50.5,48.6,30.07,North,0,0.0,-999.0,93,0.01,,,0.24,Wunderground v.1.15,2013-01-01 19:00:00,
2013-01-01 14:04:00,50.5,48.6,30.06,North,4,1.0,7.0,93,0.00,,,0.03,Wunderground v.1.15,2013-01-01 19:04:00,
2013-01-01 14:05:00,50.5,48.6,30.07,North,0,0.0,-999.0,93,0.01,,,0.24,Wunderground v.1.15,2013-01-01 19:05:00,
2013-01-01 14:10:00,50.6,48.7,30.07,North,354,1.0,7.0,93,0.00,,,0.03,Wunderground v.1.15,2013-01-01 19:10:00,
2013-01-01 14:15:00,50.7,48.7,30.07,NE,45,1.0,-999.0,93,0.01,,,0.24,Wunderground v.1.15,2013-01-01 19:15:00,
2013-01-01 14:16:00,50.6,48.7,30.07,NE,35,1.0,7.0,93,0.00,,,0.03,Wunderground v.1.15,2013-01-01 19:16:00,
2013-01-01 14:20:00,50.7,48.7,30.07,NE,45,1.0,-999.0,93,0.01,,,0.24,Wunderground v.1.15,2013-01-01 19:20:00,
2013-01-01 14:22:00,50.6,48.7,30.07,NNW,347,1.0,7.0,93,0.00,,,0.03,Wunderground v.1.15,2013-01-01 19:22:00,
2013-01-01 14:25:00,50.7,48.7,30.07,NE,45,1.0,-999.0,93,0.01,,,0.24,Wunderground v.1.15,2013-01-01 19:25:00,
2013-01-01 14:28:00,50.7,48.7,30.07,NNE,21,1.0,7.0,93,0.00,,,0.03,Wunderground v.1.15,2013-01-01 19:28:00,
2013-01-01 14:30:00,50.7,48.7,30.07,NE,45,1.0,-999.0,93,0.01,,,0.24,Wunderground v.1.15,2013-01-01 19:30:00,
2013-01-01 14:34:00,50.8,49.1,30.07,NNE,30,1.0,7.0,94,0.00,,,0.03,Wunderground v.1.15,2013-01-01 19:34:00,
2013-01-01 14:35:00,50.7,48.7,30.07,NE,45,1.0,-999.0,93,0.01,,,0.24,Wunderground v.1.15,2013-01-01 19:35:00,
2013-01-01 14:40:00,50.9,49.2,30.06,North,4,1.0,7.0,94,0.00,,,0.03,Wunderground v.1.15,2013-01-01 19:40:00,
2013-01-01 14:45:00,51.1,49.1,30.05,North,0,1.0,-999.0,93,0.00,,,0.24,Wunderground v.1.15,2013-01-01 19:45:00,
2013-01-01 14:46:00,51.0,49.3,30.06,North,4,1.0,7.0,94,0.00,,,0.03,Wunderground v.1.15,2013-01-01 19:46:00,
2013-01-01 14:50:00,51.1,49.1,30.05,North,0,1.0,-999.0,93,0.00,,,0.24,Wunderground v.1.15,2013-01-01 19:50:00,
2013-01-01 14:52:00,51.1,49.4,30.05,NNE,14,1.0,7.0,94,0.00,,,0.03,Wunderground v.1.15,2013-01-01 19:52:00,
2013-01-01 14:55:00,51.1,49.1,30.05,North,0,1.0,-999.0,93,0.00,,,0.24,Wunderground v.1.15,2013-01-01 19:55:00,
2013-01-01 14:58:00,51.2,49.2,30.06,NNW,348,1.0,7.0,93,0.00,,,0.03,Wunderground v.1.15,2013-01-01 19:58:00,
2013-01-01 15:00:00,51.1,49.1,30.05,North,0,1.0,-999.0,93,0.00,,,0.24,Wunderground v.1.15,2013-01-01 20:00:00,
2013-01-01 15:04:00,51.2,49.2,30.05,NNW,328,1.0,7.0,93,0.00,,,0.03,Wunderground v.1.15,2013-01-01 20:04:00,
2013-01-01 15:05:00,51.1,49.1,30.05,North,0,1.0,-999.0,93,0.00,,,0.24,Wunderground v.1.15,2013-01-01 20:05:00,
2013-01-01 15:10:00,51.2,49.2,30.05,North,354,1.0,1.0,93,0.00,,,0.03,Wunderground v.1.15,2013-01-01 20:10:00,
2013-01-01 15:15:00,51.2,49.2,30.04,North,0,1.0,-999.0,93,0.00,,,0.24,Wunderground v.1.15,2013-01-01 20:15:00,
2013-01-01 15:16:00,51.2,49.2,30.05,North,6,1.0,7.0,93,0.00,,,0.03,Wunderground v.1.15,2013-01-01 20:16:00,
2013-01-01 15:20:00,51.2,49.2,30.04,North,0,1.0,-999.0,93,0.00,,,0.24,Wunderground v.1.15,2013-01-01 20:20:00,
2013-01-01 15:22:00,51.2,49.2,30.05,NNE,33,1.0,7.0,93,0.00,,,0.03,Wunderground v.1.15,2013-01-01 20:22:00,
2013-01-01 15:25:00,51.2,49.2,30.04,North,0,1.0,-999.0,93,0.00,,,0.24,Wunderground v.1.15,2013-01-01 20:25:00,
2013-01-01 15:28:00,51.2,49.2,30.04,NNW,331,1.0,7.0,93,0.00,,,0.03,Wunderground v.1.15,2013-01-01 20:28:00,
2013-01-01 15:30:00,51.2,49.2,30.04,North,0,1.0,-999.0,93,0.00,,,0.24,Wunderground v.1.15,2013-01-01 20:30:00,
2013-01-01 15:34:00,51.2,49.2,30.04,NNW,347,1.0,7.0,93,0.00,,,0.03,Wunderground v.1.15,2013-01-01 20:34:00,
2013-01-01 15:35:00,51.2,49.2,30.04,North,0,1.0,-999.0,93,0.00,,,0.24,Wunderground v.1.15,2013-01-01 20:35:00,
2013-01-01 15:40:00,51.2,49.2,30.04,North,9,1.0,7.0,93,0.00,,,0.03,Wunderground v.1.15,2013-01-01 20:40:00,
2013-01-01 15:45:00,51.1,49.4,30.04,NNW,338,1.0,-999.0,94,0.01,,,0.24,Wunderground v.1.15,2013-01-01 20:45:00,
2013-01-01 15:46:00,51.2,49.2,30.03,North,355,1.0,7.0,93,0.00,,,0.03,Wunderground v.1.15,2013-01-01 20:46:00,
2013-01-01 15:50:00,51.1,49.4,30.04,NNW,338,1.0,-999.0,94,0.01,,,0.24,Wunderground v.1.15,2013-01-01 20:50:00,
2013-01-01 15:52:00,51.2,49.5,30.04,North,353,0.0,7.0,94,0.00,,,0.03,Wunderground v.1.15,2013-01-01 20:52:00,
2013-01-01 15:55:00,51.1,49.4,30.04,NNW,338,1.0,-999.0,94,0.01,,,0.24,Wunderground v.1.15,2013-01-01 20:55:00,
2013-01-01 15:58:00,51.1,49.4,30.04,NNW,329,1.0,7.0,94,0.00,,,0.04,Wunderground v.1.15,2013-01-01 20:58:00,
2013-01-01 16:00:00,51.1,49.4,30.04,NNW,338,1.0,-999.0,94,0.01,,,0.24,Wunderground v.1.15,2013-01-01 21:00:00,
2013-01-01 16:04:00,51.1,49.4,30.04,North,351,2.0,7.0,94,0.00,,,0.04,Wunderground v.1.15,2013-01-01 21:04:00,
2013-01-01 16:05:00,51.1,49.4,30.04,NNW,338,1.0,-999.0,94,0.01,,,0.24,Wunderground v.1.15,2013-01-01 21:05:00,
2013-01-01 16:10:00,51.0,49.3,30.04,North,9,2.0,2.0,94,0.05,,,0.05,Wunderground v.1.15,2013-01-01 21:10:00,
2013-01-01 16:15:00,50.9,49.2,30.05,North,0,2.0,-999.0,94,0.04,,,0.24,Wunderground v.1.15,2013-01-01 21:15:00,
2013-01-01 16:16:00,51.0,49.3,30.05,NNW,340,2.0,7.0,94,0.05,,,0.05,Wunderground v.1.15,2013-01-01 21:16:00,
2013-01-01 16:20:00,50.9,49.2,30.05,North,0,2.0,-999.0,94,0.04,,,0.24,Wunderground v.1.15,2013-01-01 21:20:00,
2013-01-01 16:22:00,51.0,49.3,30.04,NNW,343,1.0,7.0,94,0.05,,,0.06,Wunderground v.1.15,2013-01-01 21:22:00,
2013-01-01 16:25:00,50.9,49.2,30.05,North,0,2.0,-999.0,94,0.04,,,0.24,Wunderground v.1.15,2013-01-01 21:25:00,
2013-01-01 16:28:00,50.9,49.2,30.05,North,356,2.0,7.0,94,0.05,,,0.06,Wunderground v.1.15,2013-01-01 21:28:00,
2013-01-01 16:30:00,50.9,49.2,30.05,North,0,2.0,-999.0,94,0.04,,,0.24,Wunderground v.1.15,2013-01-01 21:30:00,
2013-01-01 16:34:00,50.9,49.2,30.04,NNW,337,2.0,7.0,94,0.05,,,0.07,Wunderground v.1.15,2013-01-01 21:34:00,
2013-01-01 16:35:00,50.9,49.2,30.05,North,0,2.0,-999.0,94,0.04,,,0.24,Wunderground v.1.15,2013-01-01 21:35:00,
2013-01-01 16:40:00,50.9,49.2,30.05,NNW,333,2.0,7.0,94,0.05,,,0.07,Wunderground v.1.15,2013-01-01 21:40:00,
2013-01-01 16:45:00,50.8,49.4,30.05,NNW,338,2.0,-999.0,95,0.05,,,0.24,Wunderground v.1.15,2013-01-01 21:45:00,
2013-01-01 16:46:00,50.9,49.2,30.05,North,355,2.0,7.0,94,0.04,,,0.07,Wunderground v.1.15,2013-01-01 21:46:00,
2013-01-01 16:50:00,50.8,49.4,30.05,NNW,338,2.0,-999.0,95,0.05,,,0.24,Wunderground v.1.15,2013-01-01 21:50:00,
2013-01-01 16:52:00,50.9,49.2,30.05,North,8,1.0,7.0,94,0.00,,,0.08,Wunderground v.1.15,2013-01-01 21:52:00,
2013-01-01 16:55:00,50.8,49.4,30.05,NNW,338,2.0,-999.0,95,0.05,,,0.24,Wunderground v.1.15,2013-01-01 21:55:00,
2013-01-01 16:58:00,50.8,49.4,30.05,North,9,1.0,7.0,95,0.00,,,0.08,Wunderground v.1.15,2013-01-01 21:58:00,
2013-01-01 17:00:00,50.8,49.4,30.05,NNW,338,2.0,-999.0,95,0.05,,,0.24,Wunderground v.1.15,2013-01-01 22:00:00,
2013-01-01 17:04:00,50.8,49.4,30.05,NNW,343,1.0,7.0,95,0.06,,,0.09,Wunderground v.1.15,2013-01-01 22:04:00,
2013-01-01 17:05:00,50.8,49.4,30.05,NNW,338,2.0,-999.0,95,0.05,,,0.24,Wunderground v.1.15,2013-01-01 22:05:00,
2013-01-01 17:10:00,50.8,49.4,30.06,East,79,1.0,7.0,95,0.07,,,0.10,Wunderground v.1.15,2013-01-01 22:10:00,
2013-01-01 17:15:00,50.7,49.3,30.04,North,0,1.0,-999.0,95,0.05,,,0.24,Wunderground v.1.15,2013-01-01 22:15:00,
2013-01-01 17:16:00,50.8,49.4,30.06,NNE,13,1.0,7.0,95,0.07,,,0.10,Wunderground v.1.15,2013-01-01 22:16:00,
2013-01-01 17:20:00,50.7,49.3,30.04,North,0,1.0,-999.0,95,0.05,,,0.24,Wunderground v.1.15,2013-01-01 22:20:00,
2013-01-01 17:22:00,50.7,49.3,30.05,North,355,1.0,7.0,95,0.05,,,0.11,Wunderground v.1.15,2013-01-01 22:22:00,
2013-01-01 17:25:00,50.7,49.3,30.04,North,0,1.0,-999.0,95,0.05,,,0.24,Wunderground v.1.15,2013-01-01 22:25:00,
2013-01-01 17:28:00,50.7,49.3,30.04,WNW,291,1.0,7.0,95,0.08,,,0.12,Wunderground v.1.15,2013-01-01 22:28:00,
2013-01-01 17:30:00,50.7,49.3,30.04,North,0,1.0,-999.0,95,0.05,,,0.24,Wunderground v.1.15,2013-01-01 22:30:00,
2013-01-01 17:34:00,50.7,49.3,30.05,NNW,337,1.0,7.0,95,0.08,,,0.12,Wunderground v.1.15,2013-01-01 22:34:00,
2013-01-01 17:35:00,50.7,49.3,30.04,North,0,1.0,-999.0,95,0.05,,,0.24,Wunderground v.1.15,2013-01-01 22:35:00,
2013-01-01 17:40:00,50.7,49.3,30.05,North,356,1.0,1.0,95,0.08,,,0.13,Wunderground v.1.15,2013-01-01 22:40:00,
2013-01-01 17:45:00,50.7,49.3,30.06,NNW,338,1.0,-999.0,95,0.05,,,0.24,Wunderground v.1.15,2013-01-01 22:45:00,
2013-01-01 17:46:00,50.7,49.3,30.06,North,4,1.0,7.0,95,0.05,,,0.13,Wunderground v.1.15,2013-01-01 22:46:00,
2013-01-01 17:50:00,50.7,49.3,30.06,NNW,338,1.0,-999.0,95,0.05,,,0.24,Wunderground v.1.15,2013-01-01 22:50:00,
2013-01-01 17:52:00,50.7,49.3,30.07,NE,47,0.0,7.0,95,0.00,,,0.13,Wunderground v.1.15,2013-01-01 22:52:00,
2013-01-01 17:55:00,50.7,49.3,30.06,NNW,338,1.0,-999.0,95,0.05,,,0.24,Wunderground v.1.15,2013-01-01 22:55:00,
2013-01-01 17:58:00,50.7,49.3,30.06,NNE,29,0.0,7.0,95,0.00,,,0.13,Wunderground v.1.15,2013-01-01 22:58:00,
2013-01-01 18:00:00,50.7,49.3,30.06,NNW,338,1.0,-999.0,95,0.05,,,0.24,Wunderground v.1.15,2013-01-01 23:00:00,
2013-01-01 18:04:00,50.7,49.3,30.06,East,79,0.0,7.0,95,0.00,,,0.14,Wunderground v.1.15,2013-01-01 23:04:00,
2013-01-01 18:05:00,50.7,49.3,30.06,NNW,338,1.0,-999.0,95,0.05,,,0.24,Wunderground v.1.15,2013-01-01 23:05:00,
2013-01-01 18:10:00,50.8,49.4,30.06,East,79,0.0,7.0,95,0.00,,,0.14,Wunderground v.1.15,2013-01-01 23:10:00,
2013-01-01 18:15:00,50.7,49.3,30.05,East,90,0.0,-999.0,95,0.03,,,0.24,Wunderground v.1.15,2013-01-01 23:15:00,
2013-01-01 18:16:00,50.7,49.3,30.06,East,79,0.0,7.0,95,0.00,,,0.14,Wunderground v.1.15,2013-01-01 23:16:00,
2013-01-01 18:20:00,50.7,49.3,30.05,East,90,0.0,-999.0,95,0.03,,,0.24,Wunderground v.1.15,2013-01-01 23:20:00,
2013-01-01 18:22:00,50.7,49.3,30.06,East,79,0.0,7.0,95,0.00,,,0.15,Wunderground v.1.15,2013-01-01 23:22:00,
2013-01-01 18:25:00,50.7,49.3,30.05,East,90,0.0,-999.0,95,0.03,,,0.24,Wunderground v.1.15,2013-01-01 23:25:00,
2013-01-01 18:28:00,50.7,49.3,30.05,East,79,0.0,7.0,95,0.00,,,0.15,Wunderground v.1.15,2013-01-01 23:28:00,
2013-01-01 18:30:00,50.7,49.3,30.05,East,90,0.0,-999.0,95,0.03,,,0.24,Wunderground v.1.15,2013-01-01 23:30:00,
2013-01-01 18:34:00,50.7,49.3,30.05,NE,56,0.0,7.0,95,0.00,,,0.15,Wunderground v.1.15,2013-01-01 23:34:00,
2013-01-01 18:35:00,50.7,49.3,30.05,East,90,0.0,-999.0,95,0.03,,,0.24,Wunderground v.1.15,2013-01-01 23:35:00,
2013-01-01 18:40:00,50.7,49.3,30.05,NE,54,0.0,7.0,95,0.00,,,0.15,Wunderground v.1.15,2013-01-01 23:40:00,
2013-01-01 18:45:00,50.6,49.2,30.04,WNW,293,0.0,-999.0,95,0.01,,,0.24,Wunderground v.1.15,2013-01-01 23:45:00,
2013-01-01 18:46:00,50.6,49.2,30.05,NW,315,0.0,7.0,95,0.00,,,0.15,Wunderground v.1.15,2013-01-01 23:46:00,
2013-01-01 18:50:00,50.6,49.2,30.04,WNW,293,0.0,-999.0,95,0.01,,,0.24,Wunderground v.1.15,2013-01-01 23:50:00,
2013-01-01 18:52:00,50.6,49.2,30.06,NW,316,0.0,7.0,95,0.00,,,0.15,Wunderground v.1.15,2013-01-01 23:52:00,
2013-01-01 18:55:00,50.6,49.2,30.04,WNW,293,0.0,-999.0,95,0.01,,,0.24,Wunderground v.1.15,2013-01-01 23:55:00,
2013-01-01 18:58:00,50.6,49.2,30.04,WNW,283,0.0,7.0,95,0.00,,,0.15,Wunderground v.1.15,2013-01-01 23:58:00,
2013-01-01 19:00:00,50.6,49.2,30.04,WNW,293,0.0,-999.0,95,0.01,,,0.24,Wunderground v.1.15,2013-01-02 00:00:00,
2013-01-01 19:04:00,50.6,49.2,30.04,NNW,339,0.0,7.0,95,0.00,,,0.15,Wunderground v.1.15,2013-01-02 00:04:00,
2013-01-01 19:05:00,50.6,49.2,30.04,WNW,293,0.0,-999.0,95,0.01,,,0.24,Wunderground v.1.15,2013-01-02 00:05:00,
2013-01-01 19:10:00,50.6,49.2,30.05,NNW,339,0.0,7.0,95,0.00,,,0.15,Wunderground v.1.15,2013-01-02 00:10:00,
2013-01-01 19:15:00,50.6,49.5,30.03,NW,315,0.0,-999.0,96,0.00,,,0.24,Wunderground v.1.15,2013-01-02 00:15:00,
2013-01-01 19:16:00,50.6,49.5,30.04,NNW,331,0.0,7.0,96,0.00,,,0.15,Wunderground v.1.15,2013-01-02 00:16:00,
2013-01-01 19:20:00,50.6,49.5,30.03,NW,315,0.0,-999.0,96,0.00,,,0.24,Wunderground v.1.15,2013-01-02 00:20:00,
2013-01-01 19:22:00,50.6,49.5,30.03,NNW,330,0.0,7.0,96,0.00,,,0.15,Wunderground v.1.15,2013-01-02 00:22:00,
2013-01-01 19:25:00,50.6,49.5,30.03,NW,315,0.0,-999.0,96,0.00,,,0.24,Wunderground v.1.15,2013-01-02 00:25:00,
2013-01-01 19:28:00,50.6,49.5,30.03,NNW,330,0.0,7.0,96,0.00,,,0.15,Wunderground v.1.15,2013-01-02 00:28:00,
2013-01-01 19:30:00,50.6,49.5,30.03,NW,315,0.0,-999.0,96,0.00,,,0.24,Wunderground v.1.15,2013-01-02 00:30:00,
2013-01-01 19:34:00,50.6,49.5,30.03,NW,323,0.0,7.0,96,0.00,,,0.15,Wunderground v.1.15,2013-01-02 00:34:00,
2013-01-01 19:35:00,50.6,49.5,30.03,NW,315,0.0,-999.0,96,0.00,,,0.24,Wunderground v.1.15,2013-01-02 00:35:00,
2013-01-01 19:40:00,50.6,49.5,30.04,NW,323,0.0,7.0,96,0.00,,,0.15,Wunderground v.1.15,2013-01-02 00:40:00,
2013-01-01 19:45:00,50.6,49.5,30.03,NW,315,0.0,-999.0,96,0.00,,,0.24,Wunderground v.1.15,2013-01-02 00:45:00,
2013-01-01 19:46:00,50.6,49.5,30.04,NW,323,0.0,7.0,96,0.00,,,0.15,Wunderground v.1.15,2013-01-02 00:46:00,
2013-01-01 19:50:00,50.6,49.5,30.03,NW,315,0.0,-999.0,96,0.00,,,0.24,Wunderground v.1.15,2013-01-02 00:50:00,
2013-01-01 19:52:00,50.6,49.5,30.03,NNW,328,0.0,7.0,96,0.00,,,0.15,Wunderground v.1.15,2013-01-02 00:52:00,
2013-01-01 19:55:00,50.6,49.5,30.03,NW,315,0.0,-999.0,96,0.00,,,0.24,Wunderground v.1.15,2013-01-02 00:55:00,
2013-01-01 19:58:00,50.6,49.5,30.03,NNW,329,0.0,7.0,96,0.00,,,0.15,Wunderground v.1.15,2013-01-02 00:58:00,
2013-01-01 20:00:00,50.6,49.5,30.03,NW,315,0.0,-999.0,96,0.00,,,0.24,Wunderground v.1.15,2013-01-02 01:00:00,
2013-01-01 20:04:00,50.6,49.5,30.04,NNW,329,0.0,7.0,96,0.00,,,0.15,Wunderground v.1.15,2013-01-02 01:04:00,
2013-01-01 20:05:00,50.6,49.5,30.03,NW,315,0.0,-999.0,96,0.00,,,0.24,Wunderground v.1.15,2013-01-02 01:05:00,
2013-01-01 20:10:00,50.6,49.5,30.04,North,8,0.0,7.0,96,0.00,,,0.15,Wunderground v.1.15,2013-01-02 01:10:00,
2013-01-01 20:15:00,50.7,49.6,30.06,NE,45,0.0,-999.0,96,0.00,,,0.24,Wunderground v.1.15,2013-01-02 01:15:00,
2013-01-01 20:16:00,50.6,49.5,30.04,NE,40,0.0,7.0,96,0.00,,,0.15,Wunderground v.1.15,2013-01-02 01:16:00,
2013-01-01 20:20:00,50.7,49.6,30.06,NE,45,0.0,-999.0,96,0.00,,,0.24,Wunderground v.1.15,2013-01-02 01:20:00,
2013-01-01 20:22:00,50.7,49.6,30.05,ENE,74,1.0,7.0,96,0.00,,,0.15,Wunderground v.1.15,2013-01-02 01:22:00,
2013-01-01 20:25:00,50.7,49.6,30.06,NE,45,0.0,-999.0,96,0.00,,,0.24,Wunderground v.1.15,2013-01-02 01:25:00,
2013-01-01 20:28:00,50.7,49.6,30.06,East,91,1.0,7.0,96,0.00,,,0.15,Wunderground v.1.15,2013-01-02 01:28:00,
2013-01-01 20:30:00,50.7,49.6,30.06,NE,45,0.0,-999.0,96,0.00,,,0.24,Wunderground v.1.15,2013-01-02 01:30:00,
2013-01-01 20:34:00,50.7,49.6,30.06,ENE,60,1.0,7.0,96,0.00,,,0.15,Wunderground v.1.15,2013-01-02 01:34:00,
2013-01-01 20:35:00,50.7,49.6,30.06,NE,45,0.0,-999.0,96,0.00,,,0.24,Wunderground v.1.15,2013-01-02 01:35:00,
2013-01-01 20:40:00,50.7,49.6,30.07,ENE,72,1.0,1.0,96,0.00,,,0.15,Wunderground v.1.15,2013-01-02 01:40:00,
2013-01-01 20:45:00,50.6,49.5,30.04,ENE,68,1.0,-999.0,96,0.01,,,0.24,Wunderground v.1.15,2013-01-02 01:45:00,
2013-01-01 20:46:00,50.7,49.6,30.06,NE,39,1.0,7.0,96,0.00,,,0.16,Wunderground v.1.15,2013-01-02 01:46:00,
2013-01-01 20:50:00,50.6,49.5,30.04,ENE,68,1.0,-999.0,96,0.01,,,0.24,Wunderground v.1.15,2013-01-02 01:50:00,
2013-01-01 20:52:00,50.7,49.6,30.05,ENE,66,1.0,7.0,96,0.00,,,0.16,Wunderground v.1.15,2013-01-02 01:52:00,
2013-01-01 20:55:00,50.6,49.5,30.04,ENE,68,1.0,-999.0,96,0.01,,,0.24,Wunderground v.1.15,2013-01-02 01:55:00,
2013-01-01 20:58:00,50.7,49.6,30.04,ENE,66,0.0,7.0,96,0.00,,,0.16,Wunderground v.1.15,2013-01-02 01:58:00,
2013-01-01 21:00:00,50.6,49.5,30.04,ENE,68,1.0,-999.0,96,0.01,,,0.24,Wunderground v.1.15,2013-01-02 02:00:00,
2013-01-01 21:04:00,50.6,49.5,30.04,NE,47,0.0,7.0,96,0.00,,,0.16,Wunderground v.1.15,2013-01-02 02:04:00,
2013-01-01 21:05:00,50.6,49.5,30.04,ENE,68,1.0,-999.0,96,0.01,,,0.24,Wunderground v.1.15,2013-01-02 02:05:00,
2013-01-01 21:10:00,50.6,49.5,30.03,NE,47,0.0,7.0,96,0.00,,,0.16,Wunderground v.1.15,2013-01-02 02:10:00,
2013-01-01 21:15:00,50.4,49.3,30.01,NE,45,0.0,-999.0,96,0.02,,,0.24,Wunderground v.1.15,2013-01-02 02:15:00,
2013-01-01 21:16:00,50.5,49.4,30.01,NNW,344,0.0,7.0,96,0.00,,,0.16,Wunderground v.1.15,2013-01-02 02:16:00,
2013-01-01 21:20:00,50.4,49.3,30.01,NE,45,0.0,-999.0,96,0.02,,,0.24,Wunderground v.1.15,2013-01-02 02:20:00,
2013-01-01 21:22:00,50.4,49.3,30.02,NNW,344,0.0,7.0,96,0.00,,,0.17,Wunderground v.1.15,2013-01-02 02:22:00,
2013-01-01 21:25:00,50.4,49.3,30.01,NE,45,0.0,-999.0,96,0.02,,,0.24,Wunderground v.1.15,2013-01-02 02:25:00,
2013-01-01 21:28:00,50.4,49.3,30.01,NNW,344,0.0,7.0,96,0.00,,,0.17,Wunderground v.1.15,2013-01-02 02:28:00,
2013-01-01 21:30:00,50.4,49.3,30.01,NE,45,0.0,-999.0,96,0.02,,,0.24,Wunderground v.1.15,2013-01-02 02:30:00,
2013-01-01 21:34:00,50.3,49.2,30.02,NNW,344,0.0,7.0,96,0.00,,,0.17,Wunderground v.1.15,2013-01-02 02:34:00,
2013-01-01 21:35:00,50.4,49.3,30.01,NE,45,0.0,-999.0,96,0.02,,,0.24,Wunderground v.1.15,2013-01-02 02:35:00,
2013-01-01 21:40:00,50.3,49.2,30.02,NNE,26,0.0,7.0,96,0.00,,,0.17,Wunderground v.1.15,2013-01-02 02:40:00,
2013-01-01 21:45:00,50.4,49.3,30.03,NNE,23,0.0,-999.0,96,0.01,,,0.24,Wunderground v.1.15,2013-01-02 02:45:00,
2013-01-01 21:46:00,50.4,49.3,30.02,NNE,29,0.0,7.0,96,0.00,,,0.17,Wunderground v.1.15,2013-01-02 02:46:00,
2013-01-01 21:50:00,50.4,49.3,30.03,NNE,23,0.0,-999.0,96,0.01,,,0.24,Wunderground v.1.15,2013-01-02 02:50:00,
2013-01-01 21:52:00,50.4,49.3,30.03,NNE,29,0.0,7.0,96,0.00,,,0.17,Wunderground v.1.15,2013-01-02 02:52:00,
2013-01-01 21:55:00,50.4,49.3,30.03,NNE,23,0.0,-999.0,96,0.01,,,0.24,Wunderground v.1.15,2013-01-02 02:55:00,
2013-01-01 21:58:00,50.4,49.3,30.03,NNE,29,0.0,7.0,96,0.00,,,0.17,Wunderground v.1.15,2013-01-02 02:58:00,
2013-01-01 22:00:00,50.4,49.3,30.03,NNE,23,0.0,-999.0,96,0.01,,,0.24,Wunderground v.1.15,2013-01-02 03:00:00,
2013-01-01 22:04:00,50.3,49.2,30.03,NNE,29,0.0,7.0,96,0.00,,,0.17,Wunderground v.1.15,2013-01-02 03:04:00,
2013-01-01 22:05:00,50.4,49.3,30.03,NNE,23,0.0,-999.0,96,0.01,,,0.24,Wunderground v.1.15,2013-01-02 03:05:00,
2013-01-01 22:10:00,50.3,49.2,30.04,NNE,29,0.0,7.0,96,0.00,,,0.18,Wunderground v.1.15,2013-01-02 03:10:00,
2013-01-01 22:15:00,50.3,49.2,30.02,NNE,23,0.0,-999.0,96,0.02,,,0.24,Wunderground v.1.15,2013-01-02 03:15:00,
2013-01-01 22:16:00,50.3,49.2,30.04,NNE,29,0.0,7.0,96,0.00,,,0.18,Wunderground v.1.15,2013-01-02 03:16:00,
2013-01-01 22:20:00,50.3,49.2,30.02,NNE,23,0.0,-999.0,96,0.02,,,0.24,Wunderground v.1.15,2013-01-02 03:20:00,
2013-01-01 22:22:00,50.3,49.2,30.03,NNE,29,0.0,7.0,96,0.05,,,0.19,Wunderground v.1.15,2013-01-02 03:22:00,
2013-01-01 22:25:00,50.3,49.2,30.02,NNE,23,0.0,-999.0,96,0.02,,,0.24,Wunderground v.1.15,2013-01-02 03:25:00,
2013-01-01 22:28:00,50.3,49.2,30.03,NNE,29,0.0,7.0,96,0.05,,,0.19,Wunderground v.1.15,2013-01-02 03:28:00,
2013-01-01 22:30:00,50.3,49.2,30.02,NNE,23,0.0,-999.0,96,0.02,,,0.24,Wunderground v.1.15,2013-01-02 03:30:00,
2013-01-01 22:34:00,50.2,49.1,30.02,NNE,29,0.0,7.0,96,0.04,,,0.19,Wunderground v.1.15,2013-01-02 03:34:00,
2013-01-01 22:35:00,50.3,49.2,30.02,NNE,23,0.0,-999.0,96,0.02,,,0.24,Wunderground v.1.15,2013-01-02 03:35:00,
2013-01-01 22:40:00,50.2,49.1,30.02,NNE,29,0.0,7.0,96,0.00,,,0.19,Wunderground v.1.15,2013-01-02 03:40:00,
2013-01-01 22:45:00,50.3,49.2,30.02,NNE,23,0.0,-999.0,96,0.04,,,0.24,Wunderground v.1.15,2013-01-02 03:45:00,
2013-01-01 22:46:00,50.3,49.2,30.04,NE,46,0.0,7.0,96,0.00,,,0.20,Wunderground v.1.15,2013-01-02 03:46:00,
2013-01-01 22:50:00,50.3,49.2,30.02,NNE,23,0.0,-999.0,96,0.04,,,0.24,Wunderground v.1.15,2013-01-02 03:50:00,
2013-01-01 22:52:00,50.3,49.2,30.03,NE,46,0.0,7.0,96,0.00,,,0.20,Wunderground v.1.15,2013-01-02 03:52:00,
2013-01-01 22:55:00,50.3,49.2,30.02,NNE,23,0.0,-999.0,96,0.04,,,0.24,Wunderground v.1.15,2013-01-02 03:55:00,
2013-01-01 22:58:00,50.3,49.2,30.02,NE,46,0.0,7.0,96,0.06,,,0.21,Wunderground v.1.15,2013-01-02 03:58:00,
2013-01-01 23:00:00,50.3,49.2,30.02,NNE,23,0.0,-999.0,96,0.04,,,0.24,Wunderground v.1.15,2013-01-02 04:00:00,
2013-01-01 23:04:00,50.3,49.2,30.02,NE,46,0.0,7.0,96,0.05,,,0.21,Wunderground v.1.15,2013-01-02 04:04:00,
2013-01-01 23:05:00,50.3,49.2,30.02,NNE,23,0.0,-999.0,96,0.04,,,0.24,Wunderground v.1.15,2013-01-02 04:05:00,
2013-01-01 23:10:00,50.2,49.1,30.02,NE,46,0.0,7.0,96,0.00,,,0.21,Wunderground v.1.15,2013-01-02 04:10:00,
2013-01-01 23:15:00,50.1,49.0,30.00,N/A,-737280,0.0,-999.0,96,0.03,,,0.24,Wunderground v.1.15,2013-01-02 04:15:00,
2013-01-01 23:16:00,50.2,49.1,30.01,NE,46,0.0,7.0,96,0.00,,,0.21,Wunderground v.1.15,2013-01-02 04:16:00,
2013-01-01 23:20:00,50.1,49.0,30.00,N/A,-737280,0.0,-999.0,96,0.03,,,0.24,Wunderground v.1.15,2013-01-02 04:20:00,
2013-01-01 23:22:00,50.1,49.0,30.01,NE,46,0.0,7.0,96,0.00,,,0.21,Wunderground v.1.15,2013-01-02 04:22:00,
2013-01-01 23:25:00,50.1,49.0,30.00,N/A,-737280,0.0,-999.0,96,0.03,,,0.24,Wunderground v.1.15,2013-01-02 04:25:00,
2013-01-01 23:28:00,50.1,49.0,30.00,NE,46,0.0,7.0,96,0.00,,,0.22,Wunderground v.1.15,2013-01-02 04:28:00,
2013-01-01 23:30:00,50.1,49.0,30.00,N/A,-737280,0.0,-999.0,96,0.03,,,0.24,Wunderground v.1.15,2013-01-02 04:30:00,
2013-01-01 23:34:00,50.0,48.9,30.00,NE,46,0.0,7.0,96,0.00,,,0.22,Wunderground v.1.15,2013-01-02 04:34:00,
2013-01-01 23:35:00,50.1,49.0,30.00,N/A,-737280,0.0,-999.0,96,0.03,,,0.24,Wunderground v.1.15,2013-01-02 04:35:00,
2013-01-01 23:40:00,50.1,49.0,30.00,NE,46,0.0,7.0,96,0.00,,,0.22,Wunderground v.1.15,2013-01-02 04:40:00,
2013-01-01 23:45:00,50.1,49.0,30.01,N/A,-737280,0.0,-999.0,96,0.03,,,0.24,Wunderground v.1.15,2013-01-02 04:45:00,
2013-01-01 23:46:00,50.1,49.0,30.01,NE,46,0.0,7.0,96,0.00,,,0.23,Wunderground v.1.15,2013-01-02 04:46:00,
2013-01-01 23:50:00,50.1,49.0,30.01,N/A,-737280,0.0,-999.0,96,0.03,,,0.24,Wunderground v.1.15,2013-01-02 04:50:00,
2013-01-01 23:52:00,50.1,49.0,30.01,NE,46,0.0,7.0,96,0.00,,,0.23,Wunderground v.1.15,2013-01-02 04:52:00,
2013-01-01 23:55:00,50.1,49.0,30.01,N/A,-737280,0.0,-999.0,96,0.03,,,0.24,Wunderground v.1.15,2013-01-02 04:55:00,
2013-01-01 23:58:00,50.1,49.0,30.01,NE,46,0.0,7.0,96,0.07,,,0.24,Wunderground v.1.15,2013-01-02 04:58:00,